SBOSBO DUS / EDDL
Speedbird OnlineSpeedbird Online DUS / EDDL

Düsseldorf Airport
21:44 14°C

Location Duesseldorf, Germany
Latitude: 51.289501
Longitude: 6.76678
Web Airport Website | Wikipedia
Altitude 45 Meter / 147 Feet
Distance 460 KM / 286 Miles
from London.
Time Zone UTC +2 hours (Europe/Berlin)
Codes IATA: DUS
ICAO: EDDL
Currency £1 equals EUR 1.12
Runways
RunwayLength (m)Surface
05L2700Concrete
05R3000Concrete
23L3000Concrete
23R2700Concrete
Radio
TypeDescriptionFrequency
ACCLANGEN RADAR128.55
APPDIR128.65
ATISATIS123.78
CLDCLNC DEL121.775
GNDGND121.9
INFOLANGEN INFO129.875
MISCDE ICING135.225
TWRTWR118.3
Live ATC
METAR EDDL 241920Z AUTO 02004KT 9999 SCT025 BKN038 14/11 Q1014 TEMPO BKN014
TAF TAF EDDL 241700Z 2418/2524 35005KT 9999 BKN035 PROB30 TEMPO 2418/2422 3000 -DZRA BKN008 BECMG 2423/2501 BKN013 PROB30 TEMPO 2423/2504 2500 BR BKN007 BECMG 2505/2508 BKN020 BECMG 2517/2520 25004KT
Weather As Of 24 Sep 2022 21:44
Description Broken clouds
Wind 9 km/h from North (340°)
Cloud Cover 75%
Precipitation Rain: none, Snow: none
Sunrise 07:21
Sunset 19:28
Lounges Hugo Junkers Lounge , Terminal B
Open Sky Lounge, Terminal C
Rotations During the last 90 days there were
234 flights from LHR
216 flights from LCY
236 flights to LHR
219 flights to LCY


© 2017-2022 Speedbird Online